createdAt,value
2023-01-05T00:00:56.521Z,96920.91
2023-01-05T00:03:23.595Z,96932.63
2023-01-05T00:05:50.587Z,96936.75
2023-01-05T00:08:17.595Z,96947.59
2023-01-05T00:11:03.254Z,96957.00
2023-01-05T00:13:49.024Z,96967.22
2023-01-05T00:16:34.602Z,96988.50
2023-01-05T00:19:20.333Z,97033.59
2023-01-05T00:22:05.926Z,97056.72
2023-01-05T00:24:33.006Z,97071.91
2023-01-05T00:26:59.962Z,97099.00
2023-01-05T00:29:26.939Z,97121.66
2023-01-05T00:31:54.018Z,97143.69
2023-01-05T00:34:22.020Z,97173.69
2023-01-05T00:36:49.074Z,97187.19
2023-01-05T00:39:16.265Z,97219.34
2023-01-05T00:41:43.241Z,97231.72
2023-01-05T00:44:13.380Z,97244.47
2023-01-05T00:46:40.470Z,97277.56
2023-01-05T00:49:07.555Z,97263.34
2023-01-05T00:51:34.705Z,97273.00
2023-01-05T00:54:01.710Z,97307.47
2023-01-05T00:56:28.733Z,97314.34
2023-01-05T00:58:57.267Z,97321.53
2023-01-05T01:01:24.854Z,97374.66
2023-01-05T01:03:53.463Z,97373.16
2023-01-05T01:06:25.400Z,97401.94
2023-01-05T01:08:53.271Z,97420.78
2023-01-05T01:11:20.426Z,97427.22
2023-01-05T01:13:47.427Z,97442.03
2023-01-05T01:16:16.159Z,97437.03
2023-01-05T01:18:43.489Z,97451.69
2023-01-05T01:21:10.729Z,97458.91
2023-01-05T01:23:38.257Z,97448.47
2023-01-05T01:26:10.790Z,97459.19
2023-01-05T01:28:38.465Z,97445.13
2023-01-05T01:31:06.338Z,97448.66
2023-01-05T01:33:34.206Z,97436.06
2023-01-05T01:36:04.743Z,97448.78
2023-01-05T01:38:33.707Z,97453.66
2023-01-05T01:41:01.519Z,97476.47
2023-01-05T01:43:55.858Z,97500.69
2023-01-05T01:46:26.813Z,97511.22
2023-01-05T01:49:03.566Z,97539.69
2023-01-05T01:51:41.511Z,97547.00
2023-01-05T01:54:11.946Z,97555.69
2023-01-05T01:56:44.133Z,97562.09
2023-01-05T01:59:12.137Z,97548.44
2023-01-05T02:01:39.546Z,97573.56
2023-01-05T02:04:08.090Z,97585.19
2023-01-05T02:06:35.286Z,97579.97
2023-01-05T02:09:06.518Z,97581.44
2023-01-05T02:11:55.419Z,97591.94
2023-01-05T02:14:25.573Z,97595.78
2023-01-05T02:17:19.678Z,97607.13
2023-01-05T02:20:31.652Z,97621.50
2023-01-05T02:23:17.052Z,97623.25
2023-01-05T02:25:56.227Z,97623.41
2023-01-05T02:28:32.467Z,97606.22
2023-01-05T02:31:22.014Z,97623.22
2023-01-05T02:34:03.294Z,97650.75
2023-01-05T02:37:05.927Z,97637.41
2023-01-05T02:39:46.158Z,97653.78
2023-01-05T02:42:41.535Z,97668.19
2023-01-05T02:45:09.578Z,97663.97
2023-01-05T02:47:40.117Z,97652.16
2023-01-05T02:50:14.130Z,97663.69
2023-01-05T02:53:00.688Z,97670.22
2023-01-05T02:55:39.390Z,97692.03
2023-01-05T02:58:14.480Z,97689.25
2023-01-05T03:00:46.134Z,97677.78
2023-01-05T03:03:27.315Z,97679.63
2023-01-05T03:06:04.528Z,97672.25
2023-01-05T03:08:36.310Z,97689.03
2023-01-05T03:11:30.168Z,97671.72
2023-01-05T03:14:05.674Z,97680.28
2023-01-05T03:16:36.412Z,97682.28
2023-01-05T03:19:25.888Z,97704.69
2023-01-05T03:22:14.075Z,97700.06
2023-01-05T03:25:03.167Z,97696.59
2023-01-05T03:27:56.619Z,97708.75
2023-01-05T03:30:50.808Z,97696.59
2023-01-05T03:33:44.934Z,97704.53
2023-01-05T03:36:13.857Z,97708.53
2023-01-05T03:38:47.935Z,97707.34
2023-01-05T03:41:17.728Z,97694.94
2023-01-05T03:43:47.664Z,97690.63
2023-01-05T03:46:21.064Z,97695.06
2023-01-05T03:48:48.959Z,97701.31
2023-01-05T03:51:18.734Z,97696.91
2023-01-05T03:53:46.851Z,97675.72
2023-01-05T03:56:13.927Z,97674.47
2023-01-05T03:58:41.146Z,97675.13
2023-01-05T04:01:08.955Z,97661.97
2023-01-05T04:03:37.652Z,97674.97
2023-01-05T04:06:07.402Z,97672.94
2023-01-05T04:08:35.623Z,97622.75
2023-01-05T04:11:14.624Z,97564.31
2023-01-05T04:13:44.725Z,97572.44
2023-01-05T04:16:12.394Z,97569.84
2023-01-05T04:18:41.105Z,97574.56
2023-01-05T04:21:09.555Z,97565.53
2023-01-05T04:23:38.342Z,97577.47
2023-01-05T04:26:05.996Z,97577.94
2023-01-05T04:28:37.201Z,97590.34
2023-01-05T04:31:04.472Z,97604.25
2023-01-05T04:33:33.256Z,97602.16
2023-01-05T04:36:00.535Z,97597.97
2023-01-05T04:38:29.754Z,97603.50
2023-01-05T04:40:56.951Z,97615.72
2023-01-05T04:43:28.618Z,97609.00
2023-01-05T04:45:59.007Z,97602.66
2023-01-05T04:48:26.150Z,97613.88
2023-01-05T04:50:56.357Z,97628.41
2023-01-05T04:53:29.885Z,97632.50
2023-01-05T04:55:57.864Z,97625.00
2023-01-05T04:58:25.406Z,97629.00
2023-01-05T05:00:56.776Z,97617.78
2023-01-05T05:03:26.879Z,97607.38
2023-01-05T05:05:58.761Z,97605.41
2023-01-05T05:08:28.343Z,97595.50
2023-01-05T05:10:56.034Z,97607.06
2023-01-05T05:13:23.672Z,97608.16
2023-01-05T05:15:53.545Z,97612.56
2023-01-05T05:18:22.445Z,97614.41
2023-01-05T05:20:52.864Z,97608.00
2023-01-05T05:23:24.721Z,97620.56
2023-01-05T05:25:53.924Z,97606.47
2023-01-05T05:28:28.461Z,97617.78
2023-01-05T05:30:56.605Z,97608.75
2023-01-05T05:33:24.877Z,97640.19
2023-01-05T05:35:55.015Z,97636.63
2023-01-05T05:38:23.181Z,97628.34
2023-01-05T05:40:50.522Z,97644.25
2023-01-05T05:43:17.721Z,97655.59
2023-01-05T05:45:50.296Z,97628.59
2023-01-05T05:48:18.666Z,97630.00
2023-01-05T05:50:46.212Z,97619.94
2023-01-05T05:53:13.792Z,97627.13
2023-01-05T05:55:41.939Z,97661.28
2023-01-05T05:58:09.416Z,97662.78
2023-01-05T06:00:36.522Z,97658.00
2023-01-05T06:03:03.685Z,97645.13
2023-01-05T06:05:30.850Z,97653.28
2023-01-05T06:07:57.884Z,97669.94
2023-01-05T06:10:25.000Z,97669.41
2023-01-05T06:12:55.990Z,97664.13
2023-01-05T06:15:24.338Z,97645.88
2023-01-05T06:17:51.388Z,97630.22
2023-01-05T06:20:18.827Z,97616.63
2023-01-05T06:22:45.834Z,97607.38
2023-01-05T06:25:13.688Z,97587.88
2023-01-05T06:27:40.721Z,97573.16
2023-01-05T06:30:08.610Z,97588.75
2023-01-05T06:32:35.783Z,97601.31
2023-01-05T06:35:03.134Z,97601.63
2023-01-05T06:37:30.173Z,97595.97
2023-01-05T06:39:57.225Z,97602.19
2023-01-05T06:42:28.037Z,97620.09
2023-01-05T06:44:55.195Z,97608.75
2023-01-05T06:47:22.581Z,97616.88
2023-01-05T06:49:52.822Z,97608.19
2023-01-05T06:52:19.771Z,97615.66
2023-01-05T06:54:46.750Z,97605.84
2023-01-05T06:57:14.104Z,97601.16
2023-01-05T06:59:41.129Z,97577.53
2023-01-05T07:02:18.029Z,97546.19
2023-01-05T07:04:45.066Z,97530.44
2023-01-05T07:07:18.227Z,97527.06
2023-01-05T07:09:49.571Z,97512.06
2023-01-05T07:12:17.522Z,97519.84
2023-01-05T07:14:44.738Z,97503.34
2023-01-05T07:17:12.983Z,97505.31
2023-01-05T07:19:40.713Z,97511.59
2023-01-05T07:22:08.173Z,97507.00
2023-01-05T07:24:35.419Z,97518.31
2023-01-05T07:27:07.752Z,97526.75
2023-01-05T07:29:36.813Z,97541.88
2023-01-05T07:32:04.346Z,97554.44
2023-01-05T07:34:31.408Z,97569.16
2023-01-05T07:36:58.633Z,97586.00
2023-01-05T07:39:25.723Z,97594.81
2023-01-05T07:41:52.854Z,97593.00
2023-01-05T07:44:20.006Z,97603.06
2023-01-05T07:46:46.968Z,97606.94
2023-01-05T07:49:14.013Z,97629.78
2023-01-05T07:51:41.186Z,97641.72
2023-01-05T07:54:08.210Z,97646.72
2023-01-05T07:56:35.325Z,97648.56
2023-01-05T07:59:02.381Z,97658.00
2023-01-05T08:01:29.521Z,97666.72
2023-01-05T08:03:56.599Z,97669.16
2023-01-05T08:06:24.047Z,97665.59
2023-01-05T08:08:51.411Z,97641.56
2023-01-05T08:11:21.209Z,97599.00
2023-01-05T08:14:00.858Z,97567.78
2023-01-05T08:16:31.576Z,97507.66
2023-01-05T08:18:59.385Z,97464.09
2023-01-05T08:21:26.646Z,97457.88
2023-01-05T08:23:54.183Z,97452.38
2023-01-05T08:26:23.843Z,97429.88
2023-01-05T08:28:52.318Z,97425.28
2023-01-05T08:31:27.966Z,97419.81
2023-01-05T08:34:00.315Z,97408.94
2023-01-05T08:36:28.122Z,97413.75
2023-01-05T08:38:55.784Z,97415.38
2023-01-05T08:41:25.838Z,97408.09
2023-01-05T08:43:55.122Z,97410.09
2023-01-05T08:46:25.406Z,97421.09
2023-01-05T08:48:55.140Z,97420.03
2023-01-05T08:51:22.838Z,97429.06
2023-01-05T08:53:53.574Z,97449.41
2023-01-05T08:56:26.563Z,97455.72
2023-01-05T08:58:59.288Z,97468.69
2023-01-05T09:01:26.998Z,97492.88
2023-01-05T09:03:54.296Z,97504.25
2023-01-05T09:06:21.655Z,97522.25
2023-01-05T09:08:49.039Z,97524.72
2023-01-05T09:11:19.537Z,97530.53
2023-01-05T09:13:54.297Z,97539.09
2023-01-05T09:16:56.734Z,97548.34
2023-01-05T09:19:11.956Z,97554.03
2023-01-05T09:21:41.789Z,97550.34
2023-01-05T09:24:14.616Z,97559.13
2023-01-05T09:26:42.809Z,97585.44
2023-01-05T09:29:11.102Z,97610.97
2023-01-05T09:31:38.867Z,97609.69
2023-01-05T09:34:06.127Z,97607.88
2023-01-05T09:36:33.204Z,97611.94
2023-01-05T09:39:00.315Z,97611.94
2023-01-05T09:41:41.469Z,97605.81
2023-01-05T09:44:33.195Z,97589.19
2023-01-05T09:47:27.257Z,97603.44
2023-01-05T09:49:57.224Z,97603.44
2023-01-05T09:52:24.925Z,97617.69
2023-01-05T09:54:52.192Z,97615.84
2023-01-05T09:57:29.401Z,97628.72
2023-01-05T10:00:01.133Z,97641.72
2023-01-05T10:02:39.727Z,97649.19
2023-01-05T10:05:07.960Z,97646.31
2023-01-05T10:07:52.496Z,97670.03
2023-01-05T10:11:07.577Z,97655.94
2023-01-05T10:13:39.701Z,97665.00
2023-01-05T10:16:10.485Z,97657.22
2023-01-05T10:18:37.858Z,97650.75
2023-01-05T10:21:15.977Z,97642.47
2023-01-05T10:24:04.979Z,97644.78
2023-01-05T10:26:58.235Z,97643.00
2023-01-05T10:29:31.353Z,97662.34
2023-01-05T10:32:27.282Z,97670.47
2023-01-05T10:35:02.882Z,97676.56
2023-01-05T10:37:48.290Z,97678.13
2023-01-05T10:40:28.336Z,97677.50
2023-01-05T10:43:24.752Z,97680.88
2023-01-05T10:46:28.550Z,97676.09
2023-01-05T10:48:40.329Z,97679.94
2023-01-05T10:51:08.624Z,97663.44
2023-01-05T10:53:41.419Z,97652.28
2023-01-05T10:56:23.245Z,97661.44
2023-01-05T10:59:08.580Z,97678.53
2023-01-05T11:01:37.320Z,97683.91
2023-01-05T11:07:06.449Z,97678.53
2023-01-05T11:09:39.221Z,97676.16
2023-01-05T11:12:06.677Z,97676.72
2023-01-05T11:14:39.433Z,97674.44
2023-01-05T11:17:08.030Z,97668.03
2023-01-05T11:19:45.341Z,97663.34
2023-01-05T11:22:35.899Z,97669.09
2023-01-05T11:25:26.417Z,97667.66
2023-01-05T11:28:19.916Z,97689.72
2023-01-05T11:31:03.984Z,97689.47
2023-01-05T11:33:33.945Z,97703.53
2023-01-05T11:36:02.517Z,97718.38
2023-01-05T11:38:31.087Z,97726.53
2023-01-05T11:41:00.021Z,97746.50
2023-01-05T11:43:30.174Z,97749.47
2023-01-05T11:46:03.936Z,97766.03
2023-01-05T11:48:33.277Z,97764.50
2023-01-05T11:51:00.428Z,97761.16
2023-01-05T11:53:38.547Z,97787.78
2023-01-05T11:56:25.956Z,97808.63
2023-01-05T11:58:58.213Z,97849.78
2023-01-05T12:02:16.325Z,97856.63
2023-01-05T12:05:01.426Z,97866.31
2023-01-05T12:07:36.294Z,97874.03
2023-01-05T12:10:12.552Z,97908.47
2023-01-05T12:12:48.798Z,97938.97
2023-01-05T12:15:43.519Z,97948.31
2023-01-05T12:18:35.253Z,98000.44
2023-01-05T12:21:38.515Z,98007.41
2023-01-05T12:24:29.963Z,98044.56
2023-01-05T12:27:15.257Z,98116.97
2023-01-05T12:31:34.423Z,98117.75
2023-01-05T12:36:10.852Z,98128.25
2023-01-05T12:39:10.446Z,98123.03
2023-01-05T12:41:52.726Z,98135.16
2023-01-05T12:44:44.079Z,98194.69
2023-01-05T12:47:17.256Z,98209.56
2023-01-05T12:49:49.176Z,98215.13
2023-01-05T12:52:29.406Z,98231.81
2023-01-05T12:55:11.641Z,98229.00
2023-01-05T12:57:45.843Z,98208.69
2023-01-05T13:00:19.437Z,98213.19
2023-01-05T13:02:59.488Z,98205.06
2023-01-05T13:05:56.586Z,98218.44
2023-01-05T13:08:38.858Z,98238.59
2023-01-05T13:11:09.981Z,98208.34
2023-01-05T13:13:45.207Z,98236.41
2023-01-05T13:16:19.633Z,98240.88
2023-01-05T13:18:56.229Z,98257.91
2023-01-05T13:21:27.037Z,98254.16
2023-01-05T13:24:17.166Z,98225.91
2023-01-05T13:26:49.713Z,98230.34
2023-01-05T13:29:29.566Z,98238.09
2023-01-05T13:32:10.520Z,98235.66
2023-01-05T13:35:08.615Z,98245.09
2023-01-05T13:37:45.869Z,98231.81
2023-01-05T13:40:34.757Z,98217.75
2023-01-05T13:43:30.607Z,98204.41
2023-01-05T13:46:27.132Z,98210.41
2023-01-05T13:49:16.646Z,98202.78
2023-01-05T13:51:43.900Z,98196.72
2023-01-05T13:54:19.107Z,98220.41
2023-01-05T13:56:48.910Z,98209.53
2023-01-05T13:59:39.892Z,98200.75
2023-01-05T14:02:31.284Z,98195.16
2023-01-05T14:04:59.398Z,98209.22
2023-01-05T14:07:27.676Z,98207.63
2023-01-05T14:09:57.337Z,98200.84
2023-01-05T14:12:26.145Z,98221.22
2023-01-05T14:15:33.887Z,98200.75
2023-01-05T14:18:11.928Z,98199.47
2023-01-05T14:20:54.509Z,98220.03
2023-01-05T14:23:23.909Z,98234.59
2023-01-05T14:25:57.872Z,98248.94
2023-01-05T14:28:31.191Z,98252.34
2023-01-05T14:31:21.775Z,98245.13
2023-01-05T14:33:51.093Z,98237.00
2023-01-05T14:36:41.142Z,98248.47
2023-01-05T14:39:20.522Z,98230.13
2023-01-05T14:41:58.639Z,98211.91
2023-01-05T14:44:47.232Z,98204.88
2023-01-05T14:47:14.846Z,98178.38
2023-01-05T14:50:03.969Z,98177.91
2023-01-05T14:52:55.600Z,98148.00
2023-01-05T14:55:38.158Z,98111.47
2023-01-05T14:58:36.672Z,98099.22
2023-01-05T15:01:23.482Z,98076.41
2023-01-05T15:04:11.933Z,98068.19
2023-01-05T15:07:13.132Z,98053.19
2023-01-05T15:10:05.591Z,98039.41
2023-01-05T15:12:47.371Z,98029.56
2023-01-05T15:15:36.855Z,98036.03
2023-01-05T15:18:34.008Z,98024.38
2023-01-05T15:21:13.872Z,98027.22
2023-01-05T15:24:08.927Z,98016.66
2023-01-05T15:27:13.610Z,98010.50
2023-01-05T15:29:47.811Z,98027.63
2023-01-05T15:32:29.672Z,98024.75
2023-01-05T15:35:19.180Z,98013.41
2023-01-05T15:37:48.959Z,98012.13
2023-01-05T15:40:16.408Z,98003.06
2023-01-05T15:42:45.886Z,98005.19
2023-01-05T15:45:22.734Z,97983.91
2023-01-05T15:47:50.777Z,97996.31
2023-01-05T15:50:22.059Z,97984.69
2023-01-05T15:52:55.799Z,97975.63
2023-01-05T15:55:24.370Z,97967.13
2023-01-05T15:58:03.985Z,97972.25
2023-01-05T16:00:36.104Z,97976.19
2023-01-05T16:03:23.184Z,97970.81
2023-01-05T16:05:58.633Z,97972.66
2023-01-05T16:08:26.983Z,97954.72
2023-01-05T16:10:59.898Z,97961.50
2023-01-05T16:13:38.495Z,97943.19
2023-01-05T16:16:43.412Z,97947.63
2023-01-05T16:19:16.439Z,97931.53
2023-01-05T16:21:53.576Z,97914.69
2023-01-05T16:24:27.295Z,97904.38
2023-01-05T16:26:54.751Z,97885.69
2023-01-05T16:29:38.587Z,97849.34
2023-01-05T16:32:28.636Z,97807.78
2023-01-05T16:35:33.416Z,97762.16
2023-01-05T16:38:13.202Z,97721.28
2023-01-05T16:40:57.143Z,97684.16
2023-01-05T16:43:30.647Z,97646.00
2023-01-05T16:46:27.626Z,97615.91
2023-01-05T16:49:00.551Z,97603.84
2023-01-05T16:51:34.090Z,97590.50
2023-01-05T16:54:12.251Z,97575.13
2023-01-05T16:56:45.095Z,97566.66
2023-01-05T16:59:33.480Z,97551.50
2023-01-05T17:02:00.947Z,97545.81
2023-01-05T17:04:27.990Z,97543.22
2023-01-05T17:06:58.082Z,97539.28
2023-01-05T17:09:30.991Z,97532.97
2023-01-05T17:11:58.576Z,97518.91
2023-01-05T17:14:29.014Z,97510.50
2023-01-05T17:16:56.118Z,97499.31
2023-01-05T17:19:23.462Z,97484.81
2023-01-05T17:21:56.200Z,97461.13
2023-01-05T17:24:25.879Z,97457.72
2023-01-05T17:26:53.124Z,97443.41
2023-01-05T17:29:25.480Z,97431.13
2023-01-05T17:31:58.877Z,97412.69
2023-01-05T17:34:26.338Z,97410.09
2023-01-05T17:36:58.841Z,97405.31
2023-01-05T17:39:26.221Z,97392.03
2023-01-05T17:41:53.532Z,97384.25
2023-01-05T17:44:20.686Z,97375.22
2023-01-05T17:46:48.112Z,97372.47
2023-01-05T17:49:20.323Z,97362.38
2023-01-05T17:51:47.800Z,97343.44
2023-01-05T17:54:15.177Z,97337.00
2023-01-05T17:56:44.383Z,97336.69
2023-01-05T17:59:15.229Z,97317.19
2023-01-05T18:01:42.521Z,97307.06
2023-01-05T18:04:09.588Z,97308.31
2023-01-05T18:06:36.831Z,97294.25
2023-01-05T18:09:03.997Z,97282.53
2023-01-05T18:11:31.312Z,97285.06
2023-01-05T18:13:58.425Z,97276.56
2023-01-05T18:16:26.437Z,97275.06
2023-01-05T18:18:54.613Z,97270.00
2023-01-05T18:21:22.078Z,97280.41
2023-01-05T18:23:49.400Z,97277.81
2023-01-05T18:26:16.396Z,97270.16
2023-01-05T18:28:43.560Z,97257.03
2023-01-05T18:31:15.774Z,97255.50
2023-01-05T18:33:43.044Z,97255.34
2023-01-05T18:36:15.438Z,97257.13
2023-01-05T18:38:43.678Z,97235.97
2023-01-05T18:41:12.046Z,97229.56
2023-01-05T18:43:39.793Z,97228.50
2023-01-05T18:46:06.898Z,97228.97
2023-01-05T18:48:33.967Z,97218.88
2023-01-05T18:51:08.271Z,97222.44
2023-01-05T18:53:38.728Z,97221.94
2023-01-05T18:56:07.909Z,97225.75
2023-01-05T18:58:35.355Z,97212.47
2023-01-05T19:01:17.858Z,97212.47
2023-01-05T19:03:46.287Z,97197.09
2023-01-05T19:06:16.373Z,97205.00
2023-01-05T19:08:44.310Z,97201.69
2023-01-05T19:11:19.530Z,97200.59
2023-01-05T19:13:49.359Z,97200.91
2023-01-05T19:16:18.458Z,97194.03
2023-01-05T19:18:51.123Z,97190.38
2023-01-05T19:21:19.932Z,97187.94
2023-01-05T19:23:47.299Z,97180.31
2023-01-05T19:26:15.466Z,97175.75
2023-01-05T19:28:45.449Z,97181.38
2023-01-05T19:31:15.755Z,97185.50
2023-01-05T19:33:42.980Z,97180.00
2023-01-05T19:36:14.683Z,97183.25
2023-01-05T19:38:42.273Z,97183.25
2023-01-05T19:41:16.373Z,97189.66
2023-01-05T19:43:46.637Z,97188.56
2023-01-05T19:46:15.416Z,97188.13
2023-01-05T19:48:43.532Z,97179.16
2023-01-05T19:51:13.753Z,97177.66
2023-01-05T19:53:42.331Z,97179.28
2023-01-05T19:56:16.461Z,97179.19
2023-01-05T19:58:44.293Z,97174.16
2023-01-05T20:01:14.662Z,97169.72
2023-01-05T20:03:45.202Z,97160.41
2023-01-05T20:06:24.364Z,97160.06
2023-01-05T20:08:53.219Z,97156.56
2023-01-05T20:11:41.012Z,97153.38
2023-01-05T20:14:15.494Z,97157.81
2023-01-05T20:16:45.576Z,97163.13
2023-01-05T20:19:12.719Z,97161.78
2023-01-05T20:21:40.284Z,97161.50
2023-01-05T20:24:15.925Z,97172.31
2023-01-05T20:26:45.514Z,97174.00
2023-01-05T20:29:14.359Z,97177.84
2023-01-05T20:31:45.567Z,97173.41
2023-01-05T20:34:16.680Z,97184.25
2023-01-05T20:36:44.710Z,97189.44
2023-01-05T20:39:13.820Z,97184.66
2023-01-05T20:41:47.546Z,97181.19
2023-01-05T20:44:15.804Z,97183.50
2023-01-05T20:46:45.674Z,97190.94
2023-01-05T20:49:16.066Z,97175.69
2023-01-05T20:51:43.528Z,97183.63
2023-01-05T20:54:11.489Z,97176.28
2023-01-05T20:56:41.936Z,97176.75
2023-01-05T20:59:16.398Z,97173.38
2023-01-05T21:01:45.053Z,97176.75
2023-01-05T21:04:15.614Z,97176.88
2023-01-05T21:06:46.534Z,97182.84
2023-01-05T21:09:14.256Z,97180.09
2023-01-05T21:11:41.758Z,97185.00
2023-01-05T21:14:10.003Z,97172.78
2023-01-05T21:16:40.352Z,97188.69
2023-01-05T21:19:07.961Z,97183.47
2023-01-05T21:21:38.245Z,97194.44
2023-01-05T21:24:08.037Z,97185.41
2023-01-05T21:26:35.413Z,97198.84
2023-01-05T21:29:03.113Z,97196.75
2023-01-05T21:31:30.526Z,97200.22
2023-01-05T21:33:57.901Z,97205.13
2023-01-05T21:36:27.718Z,97209.72
2023-01-05T21:39:03.600Z,97212.16
2023-01-05T21:41:54.512Z,97207.28
2023-01-05T21:44:22.581Z,97205.00
2023-01-05T21:46:50.634Z,97201.31
2023-01-05T21:49:19.805Z,97207.09
2023-01-05T21:52:11.533Z,97187.41
2023-01-05T21:54:57.271Z,97201.31
2023-01-05T21:57:24.672Z,97200.38
2023-01-05T21:59:51.935Z,97188.16
2023-01-05T22:02:19.205Z,97188.31
2023-01-05T22:04:46.420Z,97200.38
2023-01-05T22:07:13.777Z,97192.09
2023-01-05T22:09:41.085Z,97191.03
2023-01-05T22:12:09.376Z,97186.59
2023-01-05T22:14:37.513Z,97183.41
2023-01-05T22:17:06.710Z,97179.75
2023-01-05T22:19:33.849Z,97172.56
2023-01-05T22:22:00.953Z,97173.50
2023-01-05T22:24:28.153Z,97162.34
2023-01-05T22:26:55.339Z,97141.88
2023-01-05T22:29:22.626Z,97154.69
2023-01-05T22:31:51.121Z,97152.41
2023-01-05T22:34:18.610Z,97141.88
2023-01-05T22:36:45.761Z,97149.66
2023-01-05T22:39:13.379Z,97140.28
2023-01-05T22:41:40.595Z,97137.13
2023-01-05T22:44:07.771Z,97132.63
2023-01-05T22:46:35.086Z,97133.44
2023-01-05T22:49:02.213Z,97121.84
2023-01-05T22:51:32.237Z,97132.06
2023-01-05T22:53:59.919Z,97135.25
2023-01-05T22:56:34.821Z,97128.72
2023-01-05T22:59:02.732Z,97121.56
2023-01-05T23:01:32.842Z,97115.72
2023-01-05T23:04:01.338Z,97118.03
2023-01-05T23:06:28.905Z,97121.69
2023-01-05T23:08:57.014Z,97109.94
2023-01-05T23:11:29.233Z,97119.88
2023-01-05T23:13:58.421Z,97110.53
2023-01-05T23:16:26.315Z,97097.69
2023-01-05T23:18:53.821Z,97111.72
2023-01-05T23:21:22.743Z,97103.03
2023-01-05T23:23:51.871Z,97093.06
2023-01-05T23:26:19.299Z,97099.81
2023-01-05T23:28:46.804Z,97100.09
2023-01-05T23:31:16.526Z,97092.50
2023-01-05T23:33:44.852Z,97097.66
2023-01-05T23:36:19.429Z,97102.84
2023-01-05T23:38:47.484Z,97101.63
2023-01-05T23:41:16.289Z,97090.44
2023-01-05T23:43:45.347Z,97101.16
2023-01-05T23:46:20.276Z,97100.72
2023-01-05T23:48:48.862Z,97100.41
2023-01-05T23:51:17.345Z,97099.50
2023-01-05T23:53:47.169Z,97100.72
2023-01-05T23:56:20.260Z,97081.63
2023-01-05T23:58:48.543Z,97077.34
